sensor_id;sensor_type;location;lat;lon;timestamp;P1;durP1;ratioP1;P2;durP2;ratioP2
19671;SDS011;9983;51.114;13.788;2022-07-23T00:01:16;4.35;;;3.95;;
19671;SDS011;9983;51.114;13.788;2022-07-23T00:06:17;5.32;;;4.00;;
19671;SDS011;9983;51.114;13.788;2022-07-23T00:11:17;4.32;;;3.90;;
19671;SDS011;9983;51.114;13.788;2022-07-23T00:16:17;3.83;;;3.63;;
19671;SDS011;9983;51.114;13.788;2022-07-23T00:21:17;4.30;;;4.00;;
19671;SDS011;9983;51.114;13.788;2022-07-23T00:26:18;4.30;;;3.90;;
19671;SDS011;9983;51.114;13.788;2022-07-23T00:31:18;4.60;;;4.28;;
19671;SDS011;9983;51.114;13.788;2022-07-23T00:36:18;4.28;;;3.97;;
19671;SDS011;9983;51.114;13.788;2022-07-23T00:41:18;4.57;;;4.28;;
19671;SDS011;9983;51.114;13.788;2022-07-23T00:46:19;4.50;;;4.20;;
19671;SDS011;9983;51.114;13.788;2022-07-23T00:51:20;4.35;;;4.05;;
19671;SDS011;9983;51.114;13.788;2022-07-23T00:56:20;4.75;;;4.43;;
19671;SDS011;9983;51.114;13.788;2022-07-23T01:01:20;4.32;;;4.03;;
19671;SDS011;9983;51.114;13.788;2022-07-23T01:06:20;5.25;;;4.07;;
19671;SDS011;9983;51.114;13.788;2022-07-23T01:11:21;4.60;;;4.30;;
19671;SDS011;9983;51.114;13.788;2022-07-23T01:16:22;5.03;;;4.63;;
19671;SDS011;9983;51.114;13.788;2022-07-23T01:21:22;4.70;;;4.40;;
19671;SDS011;9983;51.114;13.788;2022-07-23T01:26:22;4.45;;;4.05;;
19671;SDS011;9983;51.114;13.788;2022-07-23T01:31:22;4.20;;;3.90;;
19671;SDS011;9983;51.114;13.788;2022-07-23T01:36:22;4.35;;;4.05;;
19671;SDS011;9983;51.114;13.788;2022-07-23T01:41:22;4.03;;;3.75;;
19671;SDS011;9983;51.114;13.788;2022-07-23T01:46:23;3.95;;;3.75;;
19671;SDS011;9983;51.114;13.788;2022-07-23T01:51:23;4.40;;;4.07;;
19671;SDS011;9983;51.114;13.788;2022-07-23T01:56:23;4.40;;;4.10;;
19671;SDS011;9983;51.114;13.788;2022-07-23T02:01:23;5.03;;;4.63;;
19671;SDS011;9983;51.114;13.788;2022-07-23T02:06:23;4.65;;;4.28;;
19671;SDS011;9983;51.114;13.788;2022-07-23T02:11:23;4.15;;;3.95;;
19671;SDS011;9983;51.114;13.788;2022-07-23T02:16:23;4.57;;;4.28;;
19671;SDS011;9983;51.114;13.788;2022-07-23T02:21:24;4.63;;;4.32;;
19671;SDS011;9983;51.114;13.788;2022-07-23T02:26:24;4.72;;;4.43;;
19671;SDS011;9983;51.114;13.788;2022-07-23T02:31:24;4.90;;;4.50;;
19671;SDS011;9983;51.114;13.788;2022-07-23T02:36:24;5.63;;;5.10;;
19671;SDS011;9983;51.114;13.788;2022-07-23T02:41:24;4.82;;;4.53;;
19671;SDS011;9983;51.114;13.788;2022-07-23T02:46:25;5.90;;;5.40;;
19671;SDS011;9983;51.114;13.788;2022-07-23T02:51:25;5.15;;;4.85;;
19671;SDS011;9983;51.114;13.788;2022-07-23T02:56:25;4.20;;;3.90;;
19671;SDS011;9983;51.114;13.788;2022-07-23T03:01:25;4.23;;;3.93;;
19671;SDS011;9983;51.114;13.788;2022-07-23T03:06:25;4.27;;;3.87;;
19671;SDS011;9983;51.114;13.788;2022-07-23T03:11:26;4.80;;;4.28;;
19671;SDS011;9983;51.114;13.788;2022-07-23T03:16:26;5.32;;;4.90;;
19671;SDS011;9983;51.114;13.788;2022-07-23T03:21:26;4.88;;;4.53;;
19671;SDS011;9983;51.114;13.788;2022-07-23T03:26:26;4.72;;;4.40;;
19671;SDS011;9983;51.114;13.788;2022-07-23T03:31:26;4.43;;;4.10;;
19671;SDS011;9983;51.114;13.788;2022-07-23T03:36:26;4.25;;;3.95;;
19671;SDS011;9983;51.114;13.788;2022-07-23T03:41:26;4.63;;;4.32;;
19671;SDS011;9983;51.114;13.788;2022-07-23T03:46:27;5.00;;;4.60;;
19671;SDS011;9983;51.114;13.788;2022-07-23T03:51:27;5.05;;;4.75;;
19671;SDS011;9983;51.114;13.788;2022-07-23T03:56:27;4.55;;;4.15;;
19671;SDS011;9983;51.114;13.788;2022-07-23T04:01:27;5.00;;;4.60;;
19671;SDS011;9983;51.114;13.788;2022-07-23T04:06:27;5.32;;;4.85;;
19671;SDS011;9983;51.114;13.788;2022-07-23T04:11:28;4.57;;;4.28;;
19671;SDS011;9983;51.114;13.788;2022-07-23T04:16:28;5.05;;;4.65;;
19671;SDS011;9983;51.114;13.788;2022-07-23T04:21:28;6.45;;;5.28;;
19671;SDS011;9983;51.114;13.788;2022-07-23T04:26:28;4.88;;;4.57;;
19671;SDS011;9983;51.114;13.788;2022-07-23T04:31:28;5.00;;;4.70;;
19671;SDS011;9983;51.114;13.788;2022-07-23T04:36:28;5.65;;;5.20;;
19671;SDS011;9983;51.114;13.788;2022-07-23T04:41:29;8.18;;;4.90;;
19671;SDS011;9983;51.114;13.788;2022-07-23T04:46:29;6.18;;;5.68;;
19671;SDS011;9983;51.114;13.788;2022-07-23T04:51:29;7.93;;;4.88;;
19671;SDS011;9983;51.114;13.788;2022-07-23T04:56:29;5.95;;;5.38;;
19671;SDS011;9983;51.114;13.788;2022-07-23T05:01:29;5.47;;;5.07;;
19671;SDS011;9983;51.114;13.788;2022-07-23T05:06:29;5.50;;;5.00;;
19671;SDS011;9983;51.114;13.788;2022-07-23T05:11:29;5.50;;;5.00;;
19671;SDS011;9983;51.114;13.788;2022-07-23T05:16:30;5.45;;;4.95;;
19671;SDS011;9983;51.114;13.788;2022-07-23T05:21:30;5.68;;;5.00;;
19671;SDS011;9983;51.114;13.788;2022-07-23T05:26:30;5.57;;;5.18;;
19671;SDS011;9983;51.114;13.788;2022-07-23T05:31:30;5.63;;;5.18;;
19671;SDS011;9983;51.114;13.788;2022-07-23T05:36:31;5.60;;;5.05;;
19671;SDS011;9983;51.114;13.788;2022-07-23T05:41:31;5.60;;;5.10;;
19671;SDS011;9983;51.114;13.788;2022-07-23T05:46:31;5.38;;;4.88;;
19671;SDS011;9983;51.114;13.788;2022-07-23T05:51:31;5.15;;;4.65;;
19671;SDS011;9983;51.114;13.788;2022-07-23T05:56:31;5.57;;;5.05;;
19671;SDS011;9983;51.114;13.788;2022-07-23T06:01:31;5.05;;;4.65;;
19671;SDS011;9983;51.114;13.788;2022-07-23T06:06:32;5.07;;;4.68;;
19671;SDS011;9983;51.114;13.788;2022-07-23T06:11:32;5.32;;;4.93;;
19671;SDS011;9983;51.114;13.788;2022-07-23T06:16:32;7.57;;;5.10;;
19671;SDS011;9983;51.114;13.788;2022-07-23T06:21:32;6.28;;;5.47;;
19671;SDS011;9983;51.114;13.788;2022-07-23T06:26:32;6.57;;;5.55;;
19671;SDS011;9983;51.114;13.788;2022-07-23T06:31:32;7.38;;;5.65;;
19671;SDS011;9983;51.114;13.788;2022-07-23T06:36:33;7.93;;;5.65;;
19671;SDS011;9983;51.114;13.788;2022-07-23T06:41:33;6.10;;;5.45;;
19671;SDS011;9983;51.114;13.788;2022-07-23T06:46:33;6.47;;;5.70;;
19671;SDS011;9983;51.114;13.788;2022-07-23T06:51:34;6.83;;;6.13;;
19671;SDS011;9983;51.114;13.788;2022-07-23T06:56:34;7.03;;;6.32;;
19671;SDS011;9983;51.114;13.788;2022-07-23T07:01:34;8.18;;;6.55;;
19671;SDS011;9983;51.114;13.788;2022-07-23T07:06:34;7.65;;;6.80;;
19671;SDS011;9983;51.114;13.788;2022-07-23T07:11:34;7.35;;;6.65;;
19671;SDS011;9983;51.114;13.788;2022-07-23T07:16:34;6.90;;;6.40;;
19671;SDS011;9983;51.114;13.788;2022-07-23T07:21:35;7.07;;;5.85;;
19671;SDS011;9983;51.114;13.788;2022-07-23T07:26:35;6.32;;;5.80;;
19671;SDS011;9983;51.114;13.788;2022-07-23T07:31:35;6.50;;;5.90;;
19671;SDS011;9983;51.114;13.788;2022-07-23T07:36:35;6.28;;;5.68;;
19671;SDS011;9983;51.114;13.788;2022-07-23T07:41:38;6.10;;;5.60;;
19671;SDS011;9983;51.114;13.788;2022-07-23T07:46:38;6.05;;;5.45;;
19671;SDS011;9983;51.114;13.788;2022-07-23T07:51:38;5.85;;;5.35;;
19671;SDS011;9983;51.114;13.788;2022-07-23T07:56:38;7.13;;;5.20;;
19671;SDS011;9983;51.114;13.788;2022-07-23T08:01:38;5.38;;;4.90;;
19671;SDS011;9983;51.114;13.788;2022-07-23T08:06:39;6.75;;;5.20;;
19671;SDS011;9983;51.114;13.788;2022-07-23T08:11:39;5.32;;;4.82;;
19671;SDS011;9983;51.114;13.788;2022-07-23T08:16:39;6.18;;;4.47;;
19671;SDS011;9983;51.114;13.788;2022-07-23T08:21:39;4.72;;;4.30;;
19671;SDS011;9983;51.114;13.788;2022-07-23T08:26:39;4.88;;;4.45;;
19671;SDS011;9983;51.114;13.788;2022-07-23T08:31:40;5.30;;;4.85;;
19671;SDS011;9983;51.114;13.788;2022-07-23T08:36:40;6.13;;;4.57;;
19671;SDS011;9983;51.114;13.788;2022-07-23T08:41:41;4.75;;;4.35;;
19671;SDS011;9983;51.114;13.788;2022-07-23T08:46:42;5.32;;;4.85;;
19671;SDS011;9983;51.114;13.788;2022-07-23T08:51:43;4.50;;;4.20;;
19671;SDS011;9983;51.114;13.788;2022-07-23T08:56:43;4.70;;;4.30;;
19671;SDS011;9983;51.114;13.788;2022-07-23T09:01:43;7.20;;;5.05;;
19671;SDS011;9983;51.114;13.788;2022-07-23T09:06:44;5.55;;;5.00;;
19671;SDS011;9983;51.114;13.788;2022-07-23T09:11:48;5.57;;;5.07;;
19671;SDS011;9983;51.114;13.788;2022-07-23T09:17:08;6.20;;;5.70;;
19671;SDS011;9983;51.114;13.788;2022-07-23T09:22:18;5.25;;;4.85;;
19671;SDS011;9983;51.114;13.788;2022-07-23T09:27:18;6.55;;;5.90;;
19671;SDS011;9983;51.114;13.788;2022-07-23T09:32:18;6.10;;;5.60;;
19671;SDS011;9983;51.114;13.788;2022-07-23T09:37:18;11.30;;;5.60;;
19671;SDS011;9983;51.114;13.788;2022-07-23T09:42:20;6.15;;;5.55;;
19671;SDS011;9983;51.114;13.788;2022-07-23T09:47:21;5.97;;;5.47;;
19671;SDS011;9983;51.114;13.788;2022-07-23T09:52:25;6.10;;;5.60;;
19671;SDS011;9983;51.114;13.788;2022-07-23T09:57:26;6.47;;;5.88;;
19671;SDS011;9983;51.114;13.788;2022-07-23T10:02:27;7.85;;;6.15;;
19671;SDS011;9983;51.114;13.788;2022-07-23T10:07:28;7.28;;;5.90;;
19671;SDS011;9983;51.114;13.788;2022-07-23T10:12:31;6.35;;;5.72;;
19671;SDS011;9983;51.114;13.788;2022-07-23T10:17:34;6.18;;;5.57;;
19671;SDS011;9983;51.114;13.788;2022-07-23T10:22:35;6.93;;;5.68;;
19671;SDS011;9983;51.114;13.788;2022-07-23T10:27:47;7.10;;;6.10;;
19671;SDS011;9983;51.114;13.788;2022-07-23T10:38:10;6.10;;;5.63;;
19671;SDS011;9983;51.114;13.788;2022-07-23T10:43:13;5.75;;;5.35;;
19671;SDS011;9983;51.114;13.788;2022-07-23T10:48:22;6.20;;;5.78;;
19671;SDS011;9983;51.114;13.788;2022-07-23T10:53:22;6.47;;;5.97;;
19671;SDS011;9983;51.114;13.788;2022-07-23T10:58:25;6.72;;;5.88;;
19671;SDS011;9983;51.114;13.788;2022-07-23T11:03:44;6.40;;;5.75;;
19671;SDS011;9983;51.114;13.788;2022-07-23T11:14:14;6.40;;;5.90;;
19671;SDS011;9983;51.114;13.788;2022-07-23T11:19:15;5.82;;;5.32;;
19671;SDS011;9983;51.114;13.788;2022-07-23T11:24:16;8.25;;;5.10;;
19671;SDS011;9983;51.114;13.788;2022-07-23T11:39:39;6.00;;;5.60;;
19671;SDS011;9983;51.114;13.788;2022-07-23T11:44:39;5.13;;;4.75;;
19671;SDS011;9983;51.114;13.788;2022-07-23T11:49:52;5.20;;;4.90;;
19671;SDS011;9983;51.114;13.788;2022-07-23T11:54:59;6.20;;;5.55;;
19671;SDS011;9983;51.114;13.788;2022-07-23T12:00:10;5.88;;;5.43;;
19671;SDS011;9983;51.114;13.788;2022-07-23T12:05:11;5.82;;;5.40;;
19671;SDS011;9983;51.114;13.788;2022-07-23T12:15:15;8.57;;;6.43;;
19671;SDS011;9983;51.114;13.788;2022-07-23T12:20:17;7.47;;;6.88;;
19671;SDS011;9983;51.114;13.788;2022-07-23T12:25:18;6.78;;;6.18;;
19671;SDS011;9983;51.114;13.788;2022-07-23T12:30:26;7.40;;;6.68;;
19671;SDS011;9983;51.114;13.788;2022-07-23T12:36:00;8.35;;;7.65;;
19671;SDS011;9983;51.114;13.788;2022-07-23T12:40:56;8.13;;;7.40;;
19671;SDS011;9983;51.114;13.788;2022-07-23T12:46:07;7.95;;;7.20;;
19671;SDS011;9983;51.114;13.788;2022-07-23T12:56:17;7.20;;;6.50;;
19671;SDS011;9983;51.114;13.788;2022-07-23T13:06:24;7.28;;;6.68;;
19671;SDS011;9983;51.114;13.788;2022-07-23T13:11:24;6.28;;;5.88;;
19671;SDS011;9983;51.114;13.788;2022-07-23T13:16:24;7.03;;;6.40;;
19671;SDS011;9983;51.114;13.788;2022-07-23T13:21:25;6.32;;;5.90;;
19671;SDS011;9983;51.114;13.788;2022-07-23T13:26:25;6.13;;;5.68;;
19671;SDS011;9983;51.114;13.788;2022-07-23T13:31:26;6.20;;;5.80;;
19671;SDS011;9983;51.114;13.788;2022-07-23T13:36:26;7.30;;;6.80;;
19671;SDS011;9983;51.114;13.788;2022-07-23T13:41:26;6.50;;;5.90;;
19671;SDS011;9983;51.114;13.788;2022-07-23T13:46:26;6.57;;;6.18;;
19671;SDS011;9983;51.114;13.788;2022-07-23T13:51:26;6.38;;;5.97;;
19671;SDS011;9983;51.114;13.788;2022-07-23T13:56:26;6.55;;;6.05;;
19671;SDS011;9983;51.114;13.788;2022-07-23T14:01:27;6.80;;;6.30;;
19671;SDS011;9983;51.114;13.788;2022-07-23T14:06:27;7.10;;;6.40;;
19671;SDS011;9983;51.114;13.788;2022-07-23T14:11:27;6.57;;;5.85;;
19671;SDS011;9983;51.114;13.788;2022-07-23T14:16:28;6.38;;;5.88;;
19671;SDS011;9983;51.114;13.788;2022-07-23T14:21:28;6.90;;;6.07;;
19671;SDS011;9983;51.114;13.788;2022-07-23T14:26:28;6.68;;;6.18;;
19671;SDS011;9983;51.114;13.788;2022-07-23T14:31:28;6.37;;;5.93;;
19671;SDS011;9983;51.114;13.788;2022-07-23T14:36:28;7.03;;;6.53;;
19671;SDS011;9983;51.114;13.788;2022-07-23T14:41:29;6.40;;;5.90;;
19671;SDS011;9983;51.114;13.788;2022-07-23T14:46:29;7.20;;;6.60;;
19671;SDS011;9983;51.114;13.788;2022-07-23T14:51:29;6.93;;;6.15;;
19671;SDS011;9983;51.114;13.788;2022-07-23T14:56:29;6.90;;;6.28;;
19671;SDS011;9983;51.114;13.788;2022-07-23T15:01:29;6.43;;;5.88;;
19671;SDS011;9983;51.114;13.788;2022-07-23T15:06:29;6.78;;;6.28;;
19671;SDS011;9983;51.114;13.788;2022-07-23T15:11:30;6.73;;;6.23;;
19671;SDS011;9983;51.114;13.788;2022-07-23T15:16:33;7.28;;;6.57;;
19671;SDS011;9983;51.114;13.788;2022-07-23T15:21:34;7.00;;;6.43;;
19671;SDS011;9983;51.114;13.788;2022-07-23T15:26:34;7.03;;;6.43;;
19671;SDS011;9983;51.114;13.788;2022-07-23T15:31:34;7.30;;;6.80;;
19671;SDS011;9983;51.114;13.788;2022-07-23T15:36:34;8.40;;;7.80;;
19671;SDS011;9983;51.114;13.788;2022-07-23T15:41:34;9.38;;;8.60;;
19671;SDS011;9983;51.114;13.788;2022-07-23T15:46:34;10.40;;;8.80;;
19671;SDS011;9983;51.114;13.788;2022-07-23T15:51:35;9.88;;;9.18;;
19671;SDS011;9983;51.114;13.788;2022-07-23T15:56:35;9.30;;;8.60;;
19671;SDS011;9983;51.114;13.788;2022-07-23T16:01:35;10.75;;;9.75;;
19671;SDS011;9983;51.114;13.788;2022-07-23T16:06:35;8.95;;;8.23;;
19671;SDS011;9983;51.114;13.788;2022-07-23T16:11:35;9.90;;;9.10;;
19671;SDS011;9983;51.114;13.788;2022-07-23T16:16:36;9.00;;;8.27;;
19671;SDS011;9983;51.114;13.788;2022-07-23T16:21:36;8.35;;;7.75;;
19671;SDS011;9983;51.114;13.788;2022-07-23T16:26:36;9.13;;;8.23;;
19671;SDS011;9983;51.114;13.788;2022-07-23T16:31:36;8.23;;;7.63;;
19671;SDS011;9983;51.114;13.788;2022-07-23T16:36:36;8.75;;;8.15;;
19671;SDS011;9983;51.114;13.788;2022-07-23T16:41:38;8.60;;;7.90;;
19671;SDS011;9983;51.114;13.788;2022-07-23T16:46:38;8.70;;;7.97;;
19671;SDS011;9983;51.114;13.788;2022-07-23T16:51:38;10.32;;;9.43;;
19671;SDS011;9983;51.114;13.788;2022-07-23T16:56:38;11.10;;;10.02;;
19671;SDS011;9983;51.114;13.788;2022-07-23T17:01:38;31.27;;;28.23;;
19671;SDS011;9983;51.114;13.788;2022-07-23T17:06:38;10.55;;;9.52;;
19671;SDS011;9983;51.114;13.788;2022-07-23T17:11:39;8.68;;;7.97;;
19671;SDS011;9983;51.114;13.788;2022-07-23T17:16:39;8.95;;;8.00;;
19671;SDS011;9983;51.114;13.788;2022-07-23T17:21:39;8.35;;;7.63;;
19671;SDS011;9983;51.114;13.788;2022-07-23T17:26:39;8.25;;;7.55;;
19671;SDS011;9983;51.114;13.788;2022-07-23T17:31:39;8.02;;;7.32;;
19671;SDS011;9983;51.114;13.788;2022-07-23T17:36:39;8.18;;;7.47;;
19671;SDS011;9983;51.114;13.788;2022-07-23T17:41:40;8.25;;;7.38;;
19671;SDS011;9983;51.114;13.788;2022-07-23T17:46:46;8.05;;;7.35;;
19671;SDS011;9983;51.114;13.788;2022-07-23T17:51:46;8.57;;;7.70;;
19671;SDS011;9983;51.114;13.788;2022-07-23T17:56:47;7.43;;;6.83;;
19671;SDS011;9983;51.114;13.788;2022-07-23T18:01:47;8.35;;;7.55;;
19671;SDS011;9983;51.114;13.788;2022-07-23T18:06:47;8.07;;;7.37;;
19671;SDS011;9983;51.114;13.788;2022-07-23T18:11:48;8.32;;;7.63;;
19671;SDS011;9983;51.114;13.788;2022-07-23T18:16:48;8.05;;;7.35;;
19671;SDS011;9983;51.114;13.788;2022-07-23T18:21:49;8.00;;;7.40;;
19671;SDS011;9983;51.114;13.788;2022-07-23T18:26:49;8.23;;;7.50;;
19671;SDS011;9983;51.114;13.788;2022-07-23T18:31:49;8.52;;;7.80;;
19671;SDS011;9983;51.114;13.788;2022-07-23T18:36:49;8.52;;;7.82;;
19671;SDS011;9983;51.114;13.788;2022-07-23T18:41:49;8.25;;;7.55;;
19671;SDS011;9983;51.114;13.788;2022-07-23T18:46:49;7.38;;;6.78;;
19671;SDS011;9983;51.114;13.788;2022-07-23T18:51:49;7.53;;;6.97;;
19671;SDS011;9983;51.114;13.788;2022-07-23T18:56:49;7.45;;;6.85;;
19671;SDS011;9983;51.114;13.788;2022-07-23T19:01:50;7.90;;;7.20;;
19671;SDS011;9983;51.114;13.788;2022-07-23T19:06:50;7.85;;;7.25;;
19671;SDS011;9983;51.114;13.788;2022-07-23T19:11:50;8.13;;;7.47;;
19671;SDS011;9983;51.114;13.788;2022-07-23T19:16:50;8.35;;;7.75;;
19671;SDS011;9983;51.114;13.788;2022-07-23T19:21:51;8.77;;;7.72;;
19671;SDS011;9983;51.114;13.788;2022-07-23T19:26:51;8.70;;;8.00;;
19671;SDS011;9983;51.114;13.788;2022-07-23T19:31:51;8.45;;;7.72;;
19671;SDS011;9983;51.114;13.788;2022-07-23T19:36:51;8.55;;;7.82;;
19671;SDS011;9983;51.114;13.788;2022-07-23T19:41:52;8.98;;;8.23;;
19671;SDS011;9983;51.114;13.788;2022-07-23T19:46:52;8.85;;;8.15;;
19671;SDS011;9983;51.114;13.788;2022-07-23T19:51:52;11.07;;;8.30;;
19671;SDS011;9983;51.114;13.788;2022-07-23T19:56:52;9.57;;;8.60;;
19671;SDS011;9983;51.114;13.788;2022-07-23T20:01:53;9.05;;;8.23;;
19671;SDS011;9983;51.114;13.788;2022-07-23T20:06:53;9.48;;;8.65;;
19671;SDS011;9983;51.114;13.788;2022-07-23T20:11:53;9.95;;;8.70;;
19671;SDS011;9983;51.114;13.788;2022-07-23T20:16:53;9.80;;;8.90;;
19671;SDS011;9983;51.114;13.788;2022-07-23T20:21:53;10.23;;;9.38;;
19671;SDS011;9983;51.114;13.788;2022-07-23T20:26:54;9.03;;;8.20;;
19671;SDS011;9983;51.114;13.788;2022-07-23T20:31:54;10.07;;;9.35;;
19671;SDS011;9983;51.114;13.788;2022-07-23T20:36:54;10.10;;;9.10;;
19671;SDS011;9983;51.114;13.788;2022-07-23T20:41:54;10.25;;;9.27;;
19671;SDS011;9983;51.114;13.788;2022-07-23T20:46:54;10.38;;;9.35;;
19671;SDS011;9983;51.114;13.788;2022-07-23T20:51:54;10.70;;;9.80;;
19671;SDS011;9983;51.114;13.788;2022-07-23T20:56:54;10.23;;;9.32;;
19671;SDS011;9983;51.114;13.788;2022-07-23T21:01:55;11.18;;;10.18;;
19671;SDS011;9983;51.114;13.788;2022-07-23T21:06:55;11.23;;;10.18;;
19671;SDS011;9983;51.114;13.788;2022-07-23T21:11:55;10.77;;;9.88;;
19671;SDS011;9983;51.114;13.788;2022-07-23T21:16:55;11.07;;;10.13;;
19671;SDS011;9983;51.114;13.788;2022-07-23T21:21:55;11.75;;;10.35;;
19671;SDS011;9983;51.114;13.788;2022-07-23T21:26:55;10.93;;;9.95;;
19671;SDS011;9983;51.114;13.788;2022-07-23T21:31:56;11.07;;;10.15;;
19671;SDS011;9983;51.114;13.788;2022-07-23T21:36:56;11.52;;;10.52;;
19671;SDS011;9983;51.114;13.788;2022-07-23T21:41:56;11.40;;;10.40;;
19671;SDS011;9983;51.114;13.788;2022-07-23T21:46:57;11.85;;;10.75;;
19671;SDS011;9983;51.114;13.788;2022-07-23T21:51:57;11.85;;;10.70;;
19671;SDS011;9983;51.114;13.788;2022-07-23T21:56:57;12.52;;;11.32;;
19671;SDS011;9983;51.114;13.788;2022-07-23T22:01:57;12.40;;;11.02;;
19671;SDS011;9983;51.114;13.788;2022-07-23T22:06:58;12.20;;;11.20;;
19671;SDS011;9983;51.114;13.788;2022-07-23T22:11:58;12.07;;;10.98;;
19671;SDS011;9983;51.114;13.788;2022-07-23T22:16:59;12.68;;;11.57;;
19671;SDS011;9983;51.114;13.788;2022-07-23T22:21:59;12.38;;;11.18;;
19671;SDS011;9983;51.114;13.788;2022-07-23T22:26:59;11.68;;;10.60;;
19671;SDS011;9983;51.114;13.788;2022-07-23T22:31:59;12.18;;;11.07;;
19671;SDS011;9983;51.114;13.788;2022-07-23T22:36:59;12.23;;;11.20;;
19671;SDS011;9983;51.114;13.788;2022-07-23T22:41:59;12.82;;;11.73;;
19671;SDS011;9983;51.114;13.788;2022-07-23T22:46:59;12.82;;;11.73;;
19671;SDS011;9983;51.114;13.788;2022-07-23T22:51:59;12.63;;;11.40;;
19671;SDS011;9983;51.114;13.788;2022-07-23T22:57:00;15.55;;;12.07;;
19671;SDS011;9983;51.114;13.788;2022-07-23T23:02:00;13.38;;;12.10;;
19671;SDS011;9983;51.114;13.788;2022-07-23T23:07:00;12.63;;;11.57;;
19671;SDS011;9983;51.114;13.788;2022-07-23T23:12:00;12.48;;;11.38;;
19671;SDS011;9983;51.114;13.788;2022-07-23T23:17:00;12.95;;;11.65;;
19671;SDS011;9983;51.114;13.788;2022-07-23T23:22:00;12.70;;;11.57;;
19671;SDS011;9983;51.114;13.788;2022-07-23T23:27:01;12.95;;;11.82;;
19671;SDS011;9983;51.114;13.788;2022-07-23T23:32:01;14.00;;;12.48;;
19671;SDS011;9983;51.114;13.788;2022-07-23T23:37:01;12.13;;;11.10;;
19671;SDS011;9983;51.114;13.788;2022-07-23T23:42:01;13.13;;;12.05;;
19671;SDS011;9983;51.114;13.788;2022-07-23T23:47:01;11.48;;;10.48;;
19671;SDS011;9983;51.114;13.788;2022-07-23T23:52:02;12.18;;;11.10;;
19671;SDS011;9983;51.114;13.788;2022-07-23T23:57:02;11.75;;;10.82;;
